Time;durP1;ratioP1;P1;durP2;ratioP2;P2;SDS_P1;SDS_P2;PMS_P1;PMS_P2;Temp;Humidity;BMP_temperature;BMP_pressure;BME280_temperature;BME280_humidity;BME280_pressure;Samples;Min_cycle;Max_cycle;Signal;HPM_P1;HPM_P2
2023/07/31 08:59:17;;;;;;;11.88;6.47;;;;;;;15.90;100.00;100555.06;5089712;27;20389;-76
2023/07/31 09:01:48;;;;;;;10.45;6.35;;;;;;;15.92;100.00;100550.97;5059510;27;20100;-73
2023/07/31 09:04:16;;;;;;;11.75;6.88;;;;;;;15.98;100.00;100551.00;5022831;28;20123;-73
2023/07/31 09:06:43;;;;;;;12.27;6.20;;;;;;;15.99;100.00;100552.59;5024918;28;20076;-75
2023/07/31 09:09:09;;;;;;;10.02;6.60;;;;;;;16.04;100.00;100550.72;5029869;28;20026;-77
2023/07/31 09:11:34;;;;;;;9.88;5.90;;;;;;;16.07;100.00;100552.09;5030090;28;20441;-74
2023/07/31 09:14:01;;;;;;;13.30;6.45;;;;;;;16.08;100.00;100549.09;5029843;28;20034;-73
2023/07/31 09:16:31;;;;;;;11.00;5.85;;;;;;;16.11;100.00;100548.56;5029982;28;20059;-71
2023/07/31 09:18:58;;;;;;;11.45;5.90;;;;;;;16.15;100.00;100543.38;5029412;28;20026;-72
2023/07/31 09:21:24;;;;;;;9.43;5.32;;;;;;;16.16;100.00;100541.47;5029269;28;20083;-74
2023/07/31 09:23:51;;;;;;;10.65;5.78;;;;;;;16.20;100.00;100546.13;5029024;28;20029;-74
2023/07/31 09:26:35;;;;;;;9.82;5.47;;;;;;;16.24;100.00;100535.47;5026793;28;20033;-72
2023/07/31 09:29:04;;;;;;;9.68;5.35;;;;;;;16.24;100.00;100539.03;5029616;28;20065;-72
2023/07/31 09:31:43;;;;;;;10.13;5.22;;;;;;;16.29;100.00;100539.03;5029745;28;20034;-72
2023/07/31 09:34:08;;;;;;;13.20;5.45;;;;;;;16.35;100.00;100542.59;5028204;28;20028;-73
2023/07/31 09:36:45;;;;;;;9.50;5.18;;;;;;;16.38;100.00;100531.16;5023157;28;20034;-73
2023/07/31 09:39:11;;;;;;;10.30;5.28;;;;;;;16.42;100.00;100528.69;5032088;28;20026;-76
2023/07/31 09:41:43;;;;;;;10.75;5.00;;;;;;;16.46;100.00;100537.97;5033520;28;20037;-76
2023/07/31 09:44:09;;;;;;;10.05;5.03;;;;;;;16.48;100.00;100533.84;5011164;28;20080;-75
2023/07/31 09:46:37;;;;;;;7.72;4.45;;;;;;;16.53;100.00;100532.22;5022997;28;20034;-74
2023/07/31 09:49:08;;;;;;;9.88;5.22;;;;;;;16.56;100.00;100531.69;5009108;28;20030;-75
2023/07/31 09:51:38;;;;;;;10.45;4.88;;;;;;;16.59;100.00;100528.41;5009281;28;20419;-74
2023/07/31 09:54:04;;;;;;;9.93;4.70;;;;;;;16.62;100.00;100525.97;5009271;28;20038;-75
2023/07/31 09:56:31;;;;;;;7.60;4.60;;;;;;;16.64;100.00;100531.16;5009795;28;20053;-75
2023/07/31 09:58:57;;;;;;;7.35;4.30;;;;;;;16.68;100.00;100529.50;5008940;28;20050;-75
2023/07/31 10:01:22;;;;;;;8.73;4.90;;;;;;;16.70;100.00;100524.59;5006588;28;20477;-73
2023/07/31 10:03:48;;;;;;;7.25;4.57;;;;;;;16.73;100.00;100523.22;5012412;28;20052;-76
2023/07/31 10:06:16;;;;;;;6.03;4.07;;;;;;;16.77;100.00;100516.09;5009043;28;20114;-73
2023/07/31 10:08:45;;;;;;;8.65;4.30;;;;;;;16.78;100.00;100517.75;5011456;28;20369;-73
2023/07/31 10:11:11;;;;;;;6.68;4.50;;;;;;;16.82;100.00;100518.84;4995766;28;20030;-78
2023/07/31 10:13:37;;;;;;;10.43;4.43;;;;;;;16.90;100.00;100514.75;4996070;28;20022;-75
2023/07/31 10:16:03;;;;;;;6.70;4.13;;;;;;;16.99;100.00;100513.09;4995843;28;20041;-72
2023/07/31 10:18:28;;;;;;;7.45;4.10;;;;;;;17.06;100.00;100508.19;4994692;28;20436;-73
2023/07/31 10:20:55;;;;;;;5.03;3.60;;;;;;;17.07;100.00;100507.06;5003320;28;20022;-76
2023/07/31 10:23:21;;;;;;;5.63;3.90;;;;;;;17.07;100.00;100509.78;4995686;28;20457;-77
2023/07/31 10:25:48;;;;;;;7.88;3.60;;;;;;;17.14;100.00;100517.72;4995804;28;20069;-77
2023/07/31 10:28:14;;;;;;;5.05;3.28;;;;;;;17.18;100.00;100521.53;4994348;28;20042;-76
2023/07/31 10:30:39;;;;;;;6.60;3.20;;;;;;;17.21;100.00;100511.97;5011396;28;20373;-74
2023/07/31 10:33:06;;;;;;;7.95;3.50;;;;;;;17.22;100.00;100517.16;5015125;28;20030;-81
2023/07/31 10:35:31;;;;;;;6.20;3.58;;;;;;;17.25;100.00;100515.78;5030496;28;20028;-76
2023/07/31 10:38:10;;;;;;;5.88;3.10;;;;;;;17.31;100.00;100517.41;5012965;28;20026;-75
2023/07/31 10:40:36;;;;;;;7.72;3.58;;;;;;;17.29;100.00;100516.88;5015121;28;20018;-76
2023/07/31 10:43:02;;;;;;;8.20;3.28;;;;;;;17.31;100.00;100512.75;5013725;28;20381;-77
2023/07/31 10:45:33;;;;;;;7.43;3.80;;;;;;;17.32;100.00;100519.03;4996855;28;20420;-76
2023/07/31 10:48:06;;;;;;;;;;;;;;;17.40;100.00;100523.13;4995187;28;20030;-76
2023/07/31 10:50:36;;;;;;;5.53;3.60;;;;;;;17.39;100.00;100514.06;4995071;28;20320;-74
2023/07/31 10:53:02;;;;;;;7.35;3.70;;;;;;;17.40;100.00;100521.19;4997882;28;20513;-75
2023/07/31 10:55:40;;;;;;;6.68;3.55;;;;;;;17.38;100.00;100517.94;5001012;28;20026;-73
2023/07/31 10:58:10;;;;;;;7.50;3.55;;;;;;;17.41;100.00;100519.25;4994469;28;20098;-72
2023/07/31 11:00:42;;;;;;;5.72;3.70;;;;;;;17.39;100.00;100511.34;5000808;28;20030;-72
2023/07/31 11:03:10;;;;;;;5.53;3.33;;;;;;;17.43;100.00;100515.16;5014395;28;20056;-73
2023/07/31 11:05:48;;;;;;;6.63;3.60;;;;;;;17.50;100.00;100504.75;5014754;28;20033;-73
2023/07/31 11:08:27;;;;;;;8.18;3.90;;;;;;;17.61;100.00;100511.00;5014263;28;20037;-75
2023/07/31 11:11:01;;;;;;;7.07;3.70;;;;;;;17.71;100.00;100523.81;5014673;28;20028;-74
2023/07/31 11:13:39;;;;;;;9.35;3.70;;;;;;;17.69;100.00;100510.44;5014873;28;20428;-75
2023/07/31 11:16:04;;;;;;;8.30;4.00;;;;;;;17.69;100.00;100509.59;5012943;28;20037;-72
2023/07/31 11:18:29;;;;;;;6.00;3.70;;;;;;;17.67;100.00;100509.88;5013789;28;20022;-72
2023/07/31 11:20:55;;;;;;;7.53;3.63;;;;;;;17.69;100.00;100498.63;5015524;28;20024;-74
2023/07/31 11:23:22;;;;;;;8.32;3.85;;;;;;;17.73;100.00;100507.94;5013935;28;20029;-72
2023/07/31 11:25:47;;;;;;;5.40;3.70;;;;;;;17.73;100.00;100513.41;5029521;28;20044;-74
2023/07/31 11:28:15;;;;;;;8.35;4.10;;;;;;;17.71;100.00;100496.47;5014134;28;20029;-75
2023/07/31 11:30:42;;;;;;;6.65;3.88;;;;;;;17.78;100.00;100491.47;5014502;28;20088;-76
2023/07/31 11:33:09;;;;;;;7.43;3.88;;;;;;;17.88;100.00;100496.91;5013947;28;20029;-74
2023/07/31 11:35:46;;;;;;;8.02;3.67;;;;;;;18.02;100.00;100490.81;5018634;28;20029;-74
2023/07/31 11:38:32;;;;;;;7.40;3.78;;;;;;;18.12;100.00;100490.75;5013633;28;20163;-74
2023/07/31 11:41:03;;;;;;;6.90;3.30;;;;;;;18.13;100.00;100486.94;5014095;28;20033;-74
2023/07/31 11:43:29;;;;;;;7.30;3.30;;;;;;;18.14;100.00;100485.81;5014467;28;20069;-73
2023/07/31 11:45:56;;;;;;;5.55;3.10;;;;;;;18.14;100.00;100493.22;5035197;28;20100;-74
2023/07/31 11:48:27;;;;;;;5.13;3.15;;;;;;;18.13;100.00;100484.19;5049549;28;20025;-75
2023/07/31 11:50:53;;;;;;;6.03;2.88;;;;;;;18.15;100.00;100479.25;5030066;28;20376;-75
2023/07/31 11:53:27;;;;;;;6.93;3.20;;;;;;;18.10;100.00;100487.50;5029193;28;20482;-75
2023/07/31 11:55:53;;;;;;;3.17;2.70;;;;;;;18.10;100.00;100487.50;5033749;28;20547;-76
2023/07/31 11:58:20;;;;;;;6.32;3.00;;;;;;;18.04;100.00;100488.59;5033119;28;20049;-78
2023/07/31 12:00:46;;;;;;;5.93;3.30;;;;;;;18.03;100.00;100482.31;5032123;28;20151;-76
2023/07/31 12:03:12;;;;;;;5.75;2.80;;;;;;;18.02;100.00;100477.94;5052100;28;20036;-73
2023/07/31 12:05:38;;;;;;;5.13;3.10;;;;;;;18.02;100.00;100486.16;5050374;28;20021;-73
2023/07/31 12:08:09;;;;;;;5.78;3.33;;;;;;;17.94;100.00;100491.44;5027834;28;20029;-75
2023/07/31 12:10:34;;;;;;;7.32;3.30;;;;;;;17.93;100.00;100487.84;5030080;28;20382;-75
2023/07/31 12:13:13;;;;;;;6.78;3.58;;;;;;;17.86;100.00;100482.69;5013756;28;20024;-75
2023/07/31 12:15:41;;;;;;;7.85;3.47;;;;;;;17.84;100.00;100479.38;5026640;28;20021;-75
2023/07/31 12:18:11;;;;;;;7.97;3.55;;;;;;;17.86;100.00;100485.41;5033744;28;20021;-74
2023/07/31 12:20:48;;;;;;;5.72;3.67;;;;;;;17.86;100.00;100488.16;5026957;28;20184;-74
2023/07/31 12:23:19;;;;;;;5.85;3.60;;;;;;;17.78;100.00;100480.53;5013373;28;20029;-75
2023/07/31 12:25:44;;;;;;;7.32;3.60;;;;;;;17.77;100.00;100465.22;5013387;28;20452;-74
2023/07/31 12:28:13;;;;;;;6.70;3.60;;;;;;;17.75;100.00;100464.66;5016474;28;20108;-74
2023/07/31 12:30:40;;;;;;;6.15;3.50;;;;;;;17.74;100.00;100463.06;5020452;28;20037;-75
2023/07/31 12:33:12;;;;;;;5.95;3.80;;;;;;;17.72;100.00;100462.50;5023584;28;20049;-81
2023/07/31 12:35:40;;;;;;;7.30;4.00;;;;;;;17.68;100.00;100464.19;5021470;28;20030;-76
2023/07/31 12:38:06;;;;;;;7.05;4.35;;;;;;;17.68;100.00;100467.72;5015573;28;20026;-79
2023/07/31 12:40:32;;;;;;;5.75;4.18;;;;;;;17.65;100.00;100465.56;5014943;28;20034;-78
2023/07/31 12:42:57;;;;;;;8.80;4.35;;;;;;;17.65;100.00;100460.09;5013021;28;20033;-76
2023/07/31 12:45:23;;;;;;;7.00;4.18;;;;;;;17.63;100.00;100458.72;5013527;28;20200;-76
2023/07/31 12:47:48;;;;;;;8.35;4.57;;;;;;;17.63;100.00;100447.78;5013275;28;20030;-78
2023/07/31 12:50:14;;;;;;;8.27;4.78;;;;;;;17.65;100.00;100440.13;5013165;28;20026;-77
2023/07/31 12:52:39;;;;;;;6.38;4.63;;;;;;;17.67;100.00;100433.25;5028597;28;20034;-76
2023/07/31 12:55:05;;;;;;;9.30;4.93;;;;;;;17.71;100.00;100436.25;5030545;28;20034;-75
2023/07/31 12:57:30;;;;;;;8.07;4.55;;;;;;;17.76;100.00;100433.47;5032587;28;20042;-75
2023/07/31 12:59:56;;;;;;;11.35;4.75;;;;;;;17.78;100.00;100431.25;5017064;28;20034;-75
2023/07/31 13:02:21;;;;;;;11.60;4.80;;;;;;;17.80;100.00;100433.72;5032873;28;20041;-74
2023/07/31 13:04:47;;;;;;;11.88;5.03;;;;;;;17.87;100.00;100424.13;5022277;28;20395;-75
2023/07/31 13:07:12;;;;;;;8.55;5.00;;;;;;;17.91;100.00;100418.91;5032288;28;20099;-75
2023/07/31 13:09:37;;;;;;;10.27;5.28;;;;;;;17.93;100.00;100427.63;5032457;28;20108;-75
2023/07/31 13:12:03;;;;;;;10.70;4.53;;;;;;;17.98;100.00;100430.34;5028715;28;20033;-76
2023/07/31 13:14:28;;;;;;;10.00;4.63;;;;;;;17.99;100.00;100431.16;5026171;28;20037;-82
2023/07/31 13:16:54;;;;;;;9.68;5.07;;;;;;;17.99;100.00;100437.44;5012761;28;20040;-81
2023/07/31 13:19:19;;;;;;;8.35;4.93;;;;;;;17.97;100.00;100434.19;5013864;28;20461;-76
2023/07/31 13:21:44;;;;;;;9.73;4.78;;;;;;;18.00;100.00;100432.81;5032285;28;20068;-77
2023/07/31 13:24:10;;;;;;;11.30;4.90;;;;;;;17.98;100.00;100419.41;5032225;28;20087;-76
2023/07/31 13:26:37;;;;;;;10.40;4.88;;;;;;;17.97;100.00;100422.44;5032436;28;20029;-76
2023/07/31 13:29:02;;;;;;;9.23;4.85;;;;;;;17.95;100.00;100419.13;5027168;28;20026;-76
2023/07/31 13:31:27;;;;;;;8.85;4.55;;;;;;;17.95;100.00;100411.75;5013041;28;20049;-75
2023/07/31 13:33:53;;;;;;;7.90;4.40;;;;;;;17.92;100.00;100408.75;5012661;28;20022;-75
2023/07/31 13:36:18;;;;;;;8.90;5.10;;;;;;;17.93;100.00;100418.63;5012380;28;20483;-75
2023/07/31 13:38:43;;;;;;;9.40;4.97;;;;;;;17.94;100.00;100401.09;5015477;28;20103;-80
2023/07/31 13:41:09;;;;;;;8.35;4.35;;;;;;;17.95;100.00;100402.72;5012639;28;20030;-77
2023/07/31 13:43:34;;;;;;;8.50;5.13;;;;;;;17.94;100.00;100404.66;5021098;28;20033;-78
2023/07/31 13:46:06;;;;;;;9.77;5.00;;;;;;;17.93;100.00;100397.53;5034773;28;20037;-83
2023/07/31 13:48:32;;;;;;;10.00;4.88;;;;;;;17.89;100.00;100405.50;5036061;28;20026;-78
2023/07/31 13:50:57;;;;;;;10.60;5.40;;;;;;;17.89;100.00;100405.50;5018826;28;20021;-80
2023/07/31 13:53:22;;;;;;;11.77;5.13;;;;;;;17.89;100.00;100407.44;5016932;28;20335;-78
2023/07/31 13:55:49;;;;;;;11.18;5.63;;;;;;;17.85;100.00;100403.59;5031613;28;20534;-80
2023/07/31 13:58:14;;;;;;;12.45;5.55;;;;;;;17.85;100.00;100398.13;5029858;28;20123;-74
2023/07/31 14:00:39;;;;;;;15.65;6.20;;;;;;;17.82;100.00;100393.22;5024081;28;20329;-75
2023/07/31 14:03:05;;;;;;;12.00;5.57;;;;;;;17.81;100.00;100395.13;5038412;28;20045;-74
2023/07/31 14:05:30;;;;;;;10.02;5.50;;;;;;;17.76;100.00;100405.31;5035727;28;20025;-74
2023/07/31 14:07:55;;;;;;;10.50;5.93;;;;;;;17.74;100.00;100402.00;5035927;28;20453;-74
2023/07/31 14:10:20;;;;;;;11.30;5.93;;;;;;;17.69;100.00;100400.97;5033291;28;20318;-74
2023/07/31 14:12:46;;;;;;;12.40;6.30;;;;;;;17.66;100.00;100411.66;5025888;28;20021;-74
2023/07/31 14:15:11;;;;;;;11.23;6.28;;;;;;;17.64;100.00;100398.25;5037221;28;20112;-74
2023/07/31 14:17:36;;;;;;;11.13;6.32;;;;;;;17.60;100.00;100396.38;5023353;28;20365;-74
2023/07/31 14:20:02;;;;;;;9.55;5.63;;;;;;;17.59;100.00;100394.72;5035604;28;20021;-74
2023/07/31 14:22:29;;;;;;;12.90;6.18;;;;;;;17.57;100.00;100384.06;5035290;28;20467;-74
2023/07/31 14:24:55;;;;;;;13.52;6.15;;;;;;;17.56;100.00;100381.59;5034368;28;20122;-75
2023/07/31 14:27:20;;;;;;;11.68;5.85;;;;;;;17.56;100.00;100378.88;5032187;28;20468;-73
2023/07/31 14:29:45;;;;;;;10.68;5.45;;;;;;;17.60;100.00;100382.69;5015132;28;20025;-78
2023/07/31 14:32:11;;;;;;;10.10;5.80;;;;;;;17.59;100.00;100383.78;5014783;28;20026;-74
2023/07/31 14:34:36;;;;;;;10.68;5.60;;;;;;;17.64;100.00;100383.75;5033648;28;20029;-73
2023/07/31 14:37:01;;;;;;;11.38;6.00;;;;;;;17.66;100.00;100378.81;5035139;28;20079;-73
2023/07/31 14:39:26;;;;;;;10.48;5.57;;;;;;;17.67;100.00;100375.78;5034928;28;20022;-73
2023/07/31 14:41:52;;;;;;;11.73;6.03;;;;;;;17.69;100.00;100370.03;5035298;28;20036;-73
2023/07/31 14:44:17;;;;;;;11.73;5.35;;;;;;;17.68;100.00;100368.41;5034121;28;20057;-73
2023/07/31 14:46:42;;;;;;;9.85;4.75;;;;;;;17.66;100.00;100345.97;5033927;28;20026;-74
2023/07/31 14:49:08;;;;;;;7.20;4.35;;;;;;;17.67;100.00;100351.16;5034748;28;20491;-76
2023/07/31 14:51:33;;;;;;;8.38;4.55;;;;;;;17.63;100.00;100355.56;5024590;28;20044;-74
2023/07/31 14:53:58;;;;;;;7.05;4.10;;;;;;;17.61;100.00;100343.28;5037086;28;20055;-74
2023/07/31 14:56:24;;;;;;;5.03;3.50;;;;;;;17.57;100.00;100340.28;5032959;28;20049;-74
2023/07/31 14:58:49;;;;;;;6.28;3.78;;;;;;;17.55;100.00;100345.25;5029679;28;20034;-74
2023/07/31 15:01:14;;;;;;;5.30;3.55;;;;;;;17.54;100.00;100332.66;5034100;28;20083;-74
2023/07/31 15:03:39;;;;;;;6.63;3.70;;;;;;;17.52;100.00;100332.13;5016372;28;20105;-73
2023/07/31 15:06:07;;;;;;;7.15;3.58;;;;;;;17.55;100.00;100345.25;5024827;28;20037;-74
2023/07/31 15:08:32;;;;;;;6.07;3.63;;;;;;;17.56;100.00;100335.94;5015766;28;20785;-73
2023/07/31 15:10:58;;;;;;;6.80;3.50;;;;;;;17.54;100.00;100318.97;5019946;28;20021;-73
2023/07/31 15:13:24;;;;;;;5.82;3.30;;;;;;;17.54;100.00;100327.19;5033276;28;20456;-72
2023/07/31 15:15:49;;;;;;;6.38;3.40;;;;;;;17.53;100.00;100323.63;5022927;28;20032;-72
2023/07/31 15:18:15;;;;;;;5.30;3.30;;;;;;;17.52;100.00;100321.19;5040712;28;20021;-73
2023/07/31 15:20:40;;;;;;;4.38;2.80;;;;;;;17.52;100.00;100319.25;5034745;28;20124;-73
2023/07/31 15:23:05;;;;;;;5.07;3.17;;;;;;;17.50;100.00;100305.06;5041392;28;20108;-74
2023/07/31 15:25:31;;;;;;;6.45;3.20;;;;;;;17.45;100.00;100307.84;5052727;28;20021;-79
2023/07/31 15:27:56;;;;;;;5.72;3.13;;;;;;;17.44;100.00;100305.38;5028505;28;20049;-76
2023/07/31 15:30:22;;;;;;;5.72;3.67;;;;;;;17.40;100.00;100307.84;5017930;28;20026;-76
2023/07/31 15:32:49;;;;;;;5.28;3.15;;;;;;;17.38;100.00;100301.03;5025266;28;20026;-74
2023/07/31 15:35:15;;;;;;;5.65;2.90;;;;;;;17.35;100.00;100305.16;5026314;28;20108;-73
2023/07/31 15:37:41;;;;;;;6.15;3.15;;;;;;;17.34;100.00;100287.94;5020841;28;20145;-74
2023/07/31 15:40:07;;;;;;;4.05;2.72;;;;;;;17.34;100.00;100287.94;5015547;28;20057;-75
2023/07/31 15:42:36;;;;;;;4.35;2.60;;;;;;;17.31;100.00;100284.94;5023250;28;20021;-74
2023/07/31 15:45:02;;;;;;;3.05;2.50;;;;;;;17.25;100.00;100281.44;5016417;28;20056;-75
2023/07/31 15:47:27;;;;;;;4.03;2.50;;;;;;;17.21;100.00;100280.38;5029811;28;20112;-76
2023/07/31 15:49:53;;;;;;;4.97;2.50;;;;;;;17.18;100.00;100270.81;5030183;28;20037;-73
2023/07/31 15:52:18;;;;;;;4.45;2.30;;;;;;;17.13;100.00;100267.28;5014484;28;20402;-75
2023/07/31 15:54:43;;;;;;;5.28;2.50;;;;;;;17.09;100.00;100258.84;5027105;28;20503;-73
2023/07/31 15:57:09;;;;;;;5.55;2.47;;;;;;;17.04;100.00;100264.34;5020694;28;20133;-74
2023/07/31 15:59:34;;;;;;;3.95;2.08;;;;;;;17.02;100.00;100255.63;5026180;28;20439;-73
2023/07/31 16:01:59;;;;;;;5.90;2.40;;;;;;;17.00;100.00;100247.69;5017740;28;20519;-73
2023/07/31 16:04:24;;;;;;;5.47;2.00;;;;;;;16.98;100.00;100238.13;5015344;28;20057;-74
2023/07/31 16:06:50;;;;;;;2.67;1.80;;;;;;;16.96;100.00;100240.34;5012881;28;20041;-77
2023/07/31 16:09:15;;;;;;;2.95;1.90;;;;;;;16.95;100.00;100233.25;5013297;28;20026;-73
2023/07/31 16:11:42;;;;;;;3.42;2.20;;;;;;;16.95;100.00;100230.50;5013545;28;20068;-76
2023/07/31 16:14:07;;;;;;;3.17;1.77;;;;;;;16.94;100.00;100224.22;5012071;28;20516;-75
